sensor_id;sensor_type;location;lat;lon;timestamp;P1;durP1;ratioP1;P2;durP2;ratioP2
11486;SDS011;10510;47.942;9.442;2022-09-12T00:01:34;6.88;;;3.70;;
11486;SDS011;10510;47.942;9.442;2022-09-12T00:03:34;4.68;;;2.88;;
11486;SDS011;10510;47.942;9.442;2022-09-12T00:05:42;5.68;;;2.75;;
11486;SDS011;10510;47.942;9.442;2022-09-12T00:09:44;8.30;;;4.13;;
11486;SDS011;10510;47.942;9.442;2022-09-12T00:11:44;5.63;;;2.90;;
11486;SDS011;10510;47.942;9.442;2022-09-12T00:13:45;8.02;;;3.65;;
11486;SDS011;10510;47.942;9.442;2022-09-12T00:15:46;4.00;;;3.10;;
11486;SDS011;10510;47.942;9.442;2022-09-12T00:17:46;3.75;;;2.58;;
11486;SDS011;10510;47.942;9.442;2022-09-12T00:19:47;7.32;;;3.03;;
11486;SDS011;10510;47.942;9.442;2022-09-12T00:21:47;6.25;;;3.17;;
11486;SDS011;10510;47.942;9.442;2022-09-12T00:23:47;9.02;;;3.65;;
11486;SDS011;10510;47.942;9.442;2022-09-12T00:25:48;4.65;;;3.30;;
11486;SDS011;10510;47.942;9.442;2022-09-12T00:27:48;8.30;;;3.88;;
11486;SDS011;10510;47.942;9.442;2022-09-12T00:29:49;6.78;;;3.88;;
11486;SDS011;10510;47.942;9.442;2022-09-12T00:31:49;7.53;;;4.03;;
11486;SDS011;10510;47.942;9.442;2022-09-12T00:33:50;6.03;;;4.05;;
11486;SDS011;10510;47.942;9.442;2022-09-12T00:35:51;8.93;;;4.07;;
11486;SDS011;10510;47.942;9.442;2022-09-12T00:37:54;6.15;;;3.40;;
11486;SDS011;10510;47.942;9.442;2022-09-12T00:39:54;5.35;;;3.25;;
11486;SDS011;10510;47.942;9.442;2022-09-12T00:41:54;6.97;;;3.70;;
11486;SDS011;10510;47.942;9.442;2022-09-12T00:43:59;6.22;;;3.72;;
11486;SDS011;10510;47.942;9.442;2022-09-12T00:46:12;6.13;;;3.90;;
11486;SDS011;10510;47.942;9.442;2022-09-12T00:48:16;5.18;;;3.22;;
11486;SDS011;10510;47.942;9.442;2022-09-12T00:50:24;7.75;;;3.30;;
11486;SDS011;10510;47.942;9.442;2022-09-12T00:52:29;5.82;;;3.15;;
11486;SDS011;10510;47.942;9.442;2022-09-12T00:54:42;9.52;;;3.53;;
11486;SDS011;10510;47.942;9.442;2022-09-12T00:56:48;9.35;;;3.75;;
11486;SDS011;10510;47.942;9.442;2022-09-12T00:59:04;5.40;;;3.88;;
11486;SDS011;10510;47.942;9.442;2022-09-12T01:01:11;10.77;;;3.47;;
11486;SDS011;10510;47.942;9.442;2022-09-12T01:03:12;8.10;;;3.85;;
11486;SDS011;10510;47.942;9.442;2022-09-12T01:05:15;7.00;;;3.38;;
11486;SDS011;10510;47.942;9.442;2022-09-12T01:07:16;5.30;;;3.22;;
11486;SDS011;10510;47.942;9.442;2022-09-12T01:09:18;5.82;;;3.05;;
11486;SDS011;10510;47.942;9.442;2022-09-12T01:11:20;5.25;;;3.58;;
11486;SDS011;10510;47.942;9.442;2022-09-12T01:13:21;6.70;;;3.90;;
11486;SDS011;10510;47.942;9.442;2022-09-12T01:15:22;6.38;;;3.50;;
11486;SDS011;10510;47.942;9.442;2022-09-12T01:17:22;7.85;;;3.42;;
11486;SDS011;10510;47.942;9.442;2022-09-12T01:31:36;5.22;;;3.38;;
11486;SDS011;10510;47.942;9.442;2022-09-12T01:38:38;16.77;;;6.65;;
11486;SDS011;10510;47.942;9.442;2022-09-12T01:40:44;14.73;;;6.32;;
11486;SDS011;10510;47.942;9.442;2022-09-12T01:49:51;13.82;;;6.03;;
11486;SDS011;10510;47.942;9.442;2022-09-12T01:52:01;11.63;;;4.68;;
11486;SDS011;10510;47.942;9.442;2022-09-12T01:54:11;8.57;;;3.97;;
11486;SDS011;10510;47.942;9.442;2022-09-12T01:56:24;9.75;;;4.32;;
11486;SDS011;10510;47.942;9.442;2022-09-12T01:59:02;9.20;;;4.15;;
11486;SDS011;10510;47.942;9.442;2022-09-12T02:01:13;7.68;;;4.28;;
11486;SDS011;10510;47.942;9.442;2022-09-12T02:03:21;10.10;;;4.70;;
11486;SDS011;10510;47.942;9.442;2022-09-12T02:05:28;5.68;;;3.80;;
11486;SDS011;10510;47.942;9.442;2022-09-12T02:07:39;4.63;;;3.40;;
11486;SDS011;10510;47.942;9.442;2022-09-12T02:09:45;10.48;;;4.28;;
11486;SDS011;10510;47.942;9.442;2022-09-12T02:11:51;7.05;;;3.90;;
11486;SDS011;10510;47.942;9.442;2022-09-12T02:13:59;8.70;;;3.55;;
11486;SDS011;10510;47.942;9.442;2022-09-12T02:16:07;5.95;;;3.92;;
11486;SDS011;10510;47.942;9.442;2022-09-12T02:18:10;5.22;;;3.65;;
11486;SDS011;10510;47.942;9.442;2022-09-12T02:20:15;5.45;;;3.88;;
11486;SDS011;10510;47.942;9.442;2022-09-12T02:22:20;7.82;;;4.50;;
11486;SDS011;10510;47.942;9.442;2022-09-12T02:24:28;7.93;;;3.72;;
11486;SDS011;10510;47.942;9.442;2022-09-12T02:28:40;9.18;;;4.70;;
11486;SDS011;10510;47.942;9.442;2022-09-12T02:30:43;11.20;;;3.75;;
11486;SDS011;10510;47.942;9.442;2022-09-12T02:32:55;6.00;;;3.53;;
11486;SDS011;10510;47.942;9.442;2022-09-12T02:35:02;7.95;;;4.00;;
11486;SDS011;10510;47.942;9.442;2022-09-12T02:39:20;7.93;;;4.18;;
11486;SDS011;10510;47.942;9.442;2022-09-12T02:41:20;9.45;;;4.43;;
11486;SDS011;10510;47.942;9.442;2022-09-12T02:43:21;10.10;;;4.03;;
11486;SDS011;10510;47.942;9.442;2022-09-12T02:45:22;5.70;;;3.78;;
11486;SDS011;10510;47.942;9.442;2022-09-12T02:47:27;7.03;;;4.03;;
11486;SDS011;10510;47.942;9.442;2022-09-12T02:49:33;5.68;;;3.63;;
11486;SDS011;10510;47.942;9.442;2022-09-12T02:51:33;6.13;;;3.60;;
11486;SDS011;10510;47.942;9.442;2022-09-12T02:53:33;5.30;;;3.75;;
11486;SDS011;10510;47.942;9.442;2022-09-12T02:55:35;7.55;;;4.05;;
11486;SDS011;10510;47.942;9.442;2022-09-12T02:57:37;6.00;;;3.50;;
11486;SDS011;10510;47.942;9.442;2022-09-12T02:59:38;5.90;;;4.07;;
11486;SDS011;10510;47.942;9.442;2022-09-12T03:04:12;8.05;;;4.38;;
11486;SDS011;10510;47.942;9.442;2022-09-12T03:06:39;9.27;;;4.13;;
11486;SDS011;10510;47.942;9.442;2022-09-12T03:13:59;6.65;;;4.00;;
11486;SDS011;10510;47.942;9.442;2022-09-12T03:18:50;6.70;;;3.88;;
11486;SDS011;10510;47.942;9.442;2022-09-12T03:21:20;6.70;;;4.28;;
11486;SDS011;10510;47.942;9.442;2022-09-12T03:26:38;8.10;;;4.18;;
11486;SDS011;10510;47.942;9.442;2022-09-12T03:28:33;6.30;;;3.63;;
11486;SDS011;10510;47.942;9.442;2022-09-12T03:30:42;5.75;;;3.40;;
11486;SDS011;10510;47.942;9.442;2022-09-12T03:32:46;6.93;;;3.40;;
11486;SDS011;10510;47.942;9.442;2022-09-12T03:34:48;6.70;;;3.50;;
11486;SDS011;10510;47.942;9.442;2022-09-12T03:36:49;29.65;;;5.95;;
11486;SDS011;10510;47.942;9.442;2022-09-12T03:38:49;11.82;;;6.45;;
11486;SDS011;10510;47.942;9.442;2022-09-12T03:40:50;8.85;;;5.65;;
11486;SDS011;10510;47.942;9.442;2022-09-12T03:42:50;9.75;;;6.10;;
11486;SDS011;10510;47.942;9.442;2022-09-12T03:44:50;11.18;;;6.03;;
11486;SDS011;10510;47.942;9.442;2022-09-12T03:46:51;12.20;;;5.95;;
11486;SDS011;10510;47.942;9.442;2022-09-12T03:48:51;10.63;;;5.93;;
11486;SDS011;10510;47.942;9.442;2022-09-12T03:50:51;11.82;;;5.90;;
11486;SDS011;10510;47.942;9.442;2022-09-12T03:52:51;9.65;;;5.45;;
11486;SDS011;10510;47.942;9.442;2022-09-12T03:54:52;8.70;;;5.47;;
11486;SDS011;10510;47.942;9.442;2022-09-12T03:56:52;15.00;;;6.32;;
11486;SDS011;10510;47.942;9.442;2022-09-12T03:58:52;10.90;;;6.13;;
11486;SDS011;10510;47.942;9.442;2022-09-12T04:00:53;8.90;;;5.55;;
11486;SDS011;10510;47.942;9.442;2022-09-12T04:02:54;12.30;;;6.45;;
11486;SDS011;10510;47.942;9.442;2022-09-12T04:04:57;16.00;;;6.45;;
11486;SDS011;10510;47.942;9.442;2022-09-12T04:06:57;12.27;;;6.30;;
11486;SDS011;10510;47.942;9.442;2022-09-12T04:08:58;8.75;;;5.53;;
11486;SDS011;10510;47.942;9.442;2022-09-12T04:11:01;22.20;;;6.40;;
11486;SDS011;10510;47.942;9.442;2022-09-12T04:13:03;16.17;;;6.38;;
11486;SDS011;10510;47.942;9.442;2022-09-12T04:15:04;12.27;;;5.57;;
11486;SDS011;10510;47.942;9.442;2022-09-12T04:17:06;9.65;;;5.22;;
11486;SDS011;10510;47.942;9.442;2022-09-12T04:19:07;9.90;;;5.20;;
11486;SDS011;10510;47.942;9.442;2022-09-12T04:21:11;7.95;;;4.65;;
11486;SDS011;10510;47.942;9.442;2022-09-12T04:23:17;7.38;;;4.70;;
11486;SDS011;10510;47.942;9.442;2022-09-12T04:25:17;8.32;;;4.75;;
11486;SDS011;10510;47.942;9.442;2022-09-12T04:27:17;12.32;;;4.65;;
11486;SDS011;10510;47.942;9.442;2022-09-12T04:29:18;9.20;;;5.18;;
11486;SDS011;10510;47.942;9.442;2022-09-12T04:31:18;8.55;;;4.85;;
11486;SDS011;10510;47.942;9.442;2022-09-12T04:33:21;14.27;;;5.40;;
11486;SDS011;10510;47.942;9.442;2022-09-12T04:35:21;18.08;;;5.20;;
11486;SDS011;10510;47.942;9.442;2022-09-12T04:37:22;20.25;;;5.30;;
11486;SDS011;10510;47.942;9.442;2022-09-12T04:39:23;11.75;;;4.97;;
11486;SDS011;10510;47.942;9.442;2022-09-12T04:41:25;10.10;;;5.55;;
11486;SDS011;10510;47.942;9.442;2022-09-12T04:43:30;8.98;;;4.90;;
11486;SDS011;10510;47.942;9.442;2022-09-12T04:45:31;8.00;;;4.68;;
11486;SDS011;10510;47.942;9.442;2022-09-12T04:47:32;7.05;;;4.70;;
11486;SDS011;10510;47.942;9.442;2022-09-12T04:49:32;7.47;;;4.93;;
11486;SDS011;10510;47.942;9.442;2022-09-12T04:51:33;7.65;;;5.00;;
11486;SDS011;10510;47.942;9.442;2022-09-12T04:53:35;10.43;;;5.18;;
11486;SDS011;10510;47.942;9.442;2022-09-12T04:55:36;10.50;;;5.53;;
11486;SDS011;10510;47.942;9.442;2022-09-12T04:57:37;7.25;;;4.22;;
11486;SDS011;10510;47.942;9.442;2022-09-12T04:59:37;9.68;;;5.53;;
11486;SDS011;10510;47.942;9.442;2022-09-12T05:01:38;9.73;;;6.25;;
11486;SDS011;10510;47.942;9.442;2022-09-12T05:03:38;9.40;;;5.70;;
11486;SDS011;10510;47.942;9.442;2022-09-12T05:05:39;8.63;;;5.90;;
11486;SDS011;10510;47.942;9.442;2022-09-12T05:07:40;11.80;;;6.28;;
11486;SDS011;10510;47.942;9.442;2022-09-12T05:09:40;14.20;;;7.18;;
11486;SDS011;10510;47.942;9.442;2022-09-12T05:11:41;8.48;;;5.65;;
11486;SDS011;10510;47.942;9.442;2022-09-12T05:13:43;12.30;;;5.88;;
11486;SDS011;10510;47.942;9.442;2022-09-12T05:15:46;25.13;;;7.05;;
11486;SDS011;10510;47.942;9.442;2022-09-12T05:17:53;11.45;;;6.55;;
11486;SDS011;10510;47.942;9.442;2022-09-12T05:19:53;14.95;;;7.07;;
11486;SDS011;10510;47.942;9.442;2022-09-12T05:21:54;19.60;;;7.68;;
11486;SDS011;10510;47.942;9.442;2022-09-12T05:23:56;25.08;;;7.40;;
11486;SDS011;10510;47.942;9.442;2022-09-12T05:25:59;19.63;;;8.18;;
11486;SDS011;10510;47.942;9.442;2022-09-12T05:28:00;16.63;;;8.07;;
11486;SDS011;10510;47.942;9.442;2022-09-12T05:30:00;17.48;;;7.63;;
11486;SDS011;10510;47.942;9.442;2022-09-12T05:32:01;15.77;;;7.55;;
11486;SDS011;10510;47.942;9.442;2022-09-12T05:34:02;11.80;;;7.28;;
11486;SDS011;10510;47.942;9.442;2022-09-12T05:36:18;10.05;;;6.68;;
11486;SDS011;10510;47.942;9.442;2022-09-12T05:38:20;13.93;;;7.40;;
11486;SDS011;10510;47.942;9.442;2022-09-12T05:40:23;11.65;;;7.57;;
11486;SDS011;10510;47.942;9.442;2022-09-12T05:42:23;17.25;;;8.07;;
11486;SDS011;10510;47.942;9.442;2022-09-12T05:44:23;10.95;;;7.35;;
11486;SDS011;10510;47.942;9.442;2022-09-12T05:46:25;11.38;;;7.80;;
11486;SDS011;10510;47.942;9.442;2022-09-12T05:48:26;12.80;;;6.93;;
11486;SDS011;10510;47.942;9.442;2022-09-12T05:50:27;11.85;;;7.40;;
11486;SDS011;10510;47.942;9.442;2022-09-12T05:52:28;11.45;;;7.80;;
11486;SDS011;10510;47.942;9.442;2022-09-12T05:54:28;12.43;;;8.02;;
11486;SDS011;10510;47.942;9.442;2022-09-12T05:56:30;16.02;;;7.90;;
11486;SDS011;10510;47.942;9.442;2022-09-12T05:58:33;12.88;;;7.82;;
11486;SDS011;10510;47.942;9.442;2022-09-12T06:00:34;15.23;;;8.20;;
11486;SDS011;10510;47.942;9.442;2022-09-12T06:02:34;12.48;;;7.90;;
11486;SDS011;10510;47.942;9.442;2022-09-12T06:04:35;11.98;;;7.85;;
11486;SDS011;10510;47.942;9.442;2022-09-12T06:06:36;15.68;;;7.97;;
11486;SDS011;10510;47.942;9.442;2022-09-12T06:08:38;11.25;;;7.22;;
11486;SDS011;10510;47.942;9.442;2022-09-12T06:10:40;10.45;;;7.40;;
11486;SDS011;10510;47.942;9.442;2022-09-12T06:12:42;13.02;;;7.57;;
11486;SDS011;10510;47.942;9.442;2022-09-12T06:14:42;10.23;;;7.25;;
11486;SDS011;10510;47.942;9.442;2022-09-12T06:16:42;12.73;;;7.88;;
11486;SDS011;10510;47.942;9.442;2022-09-12T06:18:50;12.00;;;6.88;;
11486;SDS011;10510;47.942;9.442;2022-09-12T06:20:52;9.98;;;7.07;;
11486;SDS011;10510;47.942;9.442;2022-09-12T06:22:53;12.95;;;7.88;;
11486;SDS011;10510;47.942;9.442;2022-09-12T06:24:53;14.23;;;7.78;;
11486;SDS011;10510;47.942;9.442;2022-09-12T06:26:53;12.68;;;8.25;;
11486;SDS011;10510;47.942;9.442;2022-09-12T06:28:54;11.75;;;8.23;;
11486;SDS011;10510;47.942;9.442;2022-09-12T06:31:08;11.82;;;7.45;;
11486;SDS011;10510;47.942;9.442;2022-09-12T06:33:11;13.40;;;7.57;;
11486;SDS011;10510;47.942;9.442;2022-09-12T06:35:11;15.63;;;8.32;;
11486;SDS011;10510;47.942;9.442;2022-09-12T06:37:12;13.50;;;8.15;;
11486;SDS011;10510;47.942;9.442;2022-09-12T06:39:14;15.10;;;9.38;;
11486;SDS011;10510;47.942;9.442;2022-09-12T06:41:18;13.65;;;9.13;;
11486;SDS011;10510;47.942;9.442;2022-09-12T06:43:18;11.98;;;8.60;;
11486;SDS011;10510;47.942;9.442;2022-09-12T06:45:18;16.58;;;8.68;;
11486;SDS011;10510;47.942;9.442;2022-09-12T06:47:19;12.40;;;9.23;;
11486;SDS011;10510;47.942;9.442;2022-09-12T06:49:20;17.33;;;8.38;;
11486;SDS011;10510;47.942;9.442;2022-09-12T06:51:20;11.32;;;8.35;;
11486;SDS011;10510;47.942;9.442;2022-09-12T06:53:20;11.82;;;7.68;;
11486;SDS011;10510;47.942;9.442;2022-09-12T06:55:20;10.93;;;8.05;;
11486;SDS011;10510;47.942;9.442;2022-09-12T06:57:23;15.75;;;9.73;;
11486;SDS011;10510;47.942;9.442;2022-09-12T06:59:23;15.65;;;9.50;;
11486;SDS011;10510;47.942;9.442;2022-09-12T07:01:30;11.57;;;8.07;;
11486;SDS011;10510;47.942;9.442;2022-09-12T07:03:31;15.27;;;9.40;;
11486;SDS011;10510;47.942;9.442;2022-09-12T07:05:32;11.40;;;8.35;;
11486;SDS011;10510;47.942;9.442;2022-09-12T07:07:33;16.83;;;8.70;;
11486;SDS011;10510;47.942;9.442;2022-09-12T07:09:34;13.93;;;8.32;;
11486;SDS011;10510;47.942;9.442;2022-09-12T07:11:35;11.45;;;8.23;;
11486;SDS011;10510;47.942;9.442;2022-09-12T07:13:37;11.27;;;7.60;;
11486;SDS011;10510;47.942;9.442;2022-09-12T07:15:39;11.07;;;7.68;;
11486;SDS011;10510;47.942;9.442;2022-09-12T07:17:39;11.05;;;7.18;;
11486;SDS011;10510;47.942;9.442;2022-09-12T07:19:39;8.57;;;6.18;;
11486;SDS011;10510;47.942;9.442;2022-09-12T07:21:40;8.75;;;6.65;;
11486;SDS011;10510;47.942;9.442;2022-09-12T07:23:41;9.05;;;5.10;;
11486;SDS011;10510;47.942;9.442;2022-09-12T07:25:41;7.55;;;5.45;;
11486;SDS011;10510;47.942;9.442;2022-09-12T07:27:42;10.60;;;5.15;;
11486;SDS011;10510;47.942;9.442;2022-09-12T07:29:42;9.75;;;5.00;;
11486;SDS011;10510;47.942;9.442;2022-09-12T07:31:45;11.45;;;5.50;;
11486;SDS011;10510;47.942;9.442;2022-09-12T07:33:46;8.77;;;5.72;;
11486;SDS011;10510;47.942;9.442;2022-09-12T07:35:46;12.75;;;6.15;;
11486;SDS011;10510;47.942;9.442;2022-09-12T07:37:46;7.80;;;5.90;;
11486;SDS011;10510;47.942;9.442;2022-09-12T07:39:47;8.02;;;5.30;;
11486;SDS011;10510;47.942;9.442;2022-09-12T07:41:47;6.40;;;3.72;;
11486;SDS011;10510;47.942;9.442;2022-09-12T07:43:49;4.47;;;3.05;;
11486;SDS011;10510;47.942;9.442;2022-09-12T07:45:57;4.43;;;3.10;;
11486;SDS011;10510;47.942;9.442;2022-09-12T07:47:57;4.15;;;2.38;;
11486;SDS011;10510;47.942;9.442;2022-09-12T07:49:57;4.15;;;2.20;;
11486;SDS011;10510;47.942;9.442;2022-09-12T07:51:58;4.68;;;2.72;;
11486;SDS011;10510;47.942;9.442;2022-09-12T07:53:58;3.25;;;2.13;;
11486;SDS011;10510;47.942;9.442;2022-09-12T07:55:59;2.35;;;2.10;;
11486;SDS011;10510;47.942;9.442;2022-09-12T07:57:59;2.85;;;2.08;;
11486;SDS011;10510;47.942;9.442;2022-09-12T07:59:59;2.45;;;1.73;;
11486;SDS011;10510;47.942;9.442;2022-09-12T08:02:00;3.25;;;1.90;;
11486;SDS011;10510;47.942;9.442;2022-09-12T08:04:00;4.20;;;1.63;;
11486;SDS011;10510;47.942;9.442;2022-09-12T08:08:06;2.05;;;1.30;;
11486;SDS011;10510;47.942;9.442;2022-09-12T08:10:07;8.32;;;1.95;;
11486;SDS011;10510;47.942;9.442;2022-09-12T08:12:08;3.65;;;1.60;;
11486;SDS011;10510;47.942;9.442;2022-09-12T08:14:08;4.78;;;1.63;;
11486;SDS011;10510;47.942;9.442;2022-09-12T08:16:15;2.17;;;1.60;;
11486;SDS011;10510;47.942;9.442;2022-09-12T08:18:17;5.60;;;1.42;;
11486;SDS011;10510;47.942;9.442;2022-09-12T08:20:17;3.80;;;1.20;;
11486;SDS011;10510;47.942;9.442;2022-09-12T08:22:17;3.22;;;1.30;;
11486;SDS011;10510;47.942;9.442;2022-09-12T08:24:21;1.73;;;1.50;;
11486;SDS011;10510;47.942;9.442;2022-09-12T08:26:21;3.30;;;1.55;;
11486;SDS011;10510;47.942;9.442;2022-09-12T08:28:23;3.03;;;1.20;;
11486;SDS011;10510;47.942;9.442;2022-09-12T08:30:24;4.43;;;1.10;;
11486;SDS011;10510;47.942;9.442;2022-09-12T08:32:24;4.22;;;1.42;;
11486;SDS011;10510;47.942;9.442;2022-09-12T08:34:25;1.77;;;1.05;;
11486;SDS011;10510;47.942;9.442;2022-09-12T08:36:26;1.75;;;0.80;;
11486;SDS011;10510;47.942;9.442;2022-09-12T08:38:28;5.28;;;1.25;;
11486;SDS011;10510;47.942;9.442;2022-09-12T08:40:28;2.53;;;1.02;;
11486;SDS011;10510;47.942;9.442;2022-09-12T08:42:34;1.73;;;1.17;;
11486;SDS011;10510;47.942;9.442;2022-09-12T08:47:42;0.93;;;0.60;;
11486;SDS011;10510;47.942;9.442;2022-09-12T08:49:56;4.07;;;0.60;;
11486;SDS011;10510;47.942;9.442;2022-09-12T08:51:58;1.95;;;1.02;;
11486;SDS011;10510;47.942;9.442;2022-09-12T08:54:08;1.90;;;0.70;;
11486;SDS011;10510;47.942;9.442;2022-09-12T08:56:19;3.10;;;0.70;;
11486;SDS011;10510;47.942;9.442;2022-09-12T08:58:20;1.80;;;0.90;;
11486;SDS011;10510;47.942;9.442;2022-09-12T09:00:21;1.85;;;0.70;;
11486;SDS011;10510;47.942;9.442;2022-09-12T09:02:39;5.05;;;0.95;;
11486;SDS011;10510;47.942;9.442;2022-09-12T09:05:13;2.45;;;0.75;;
11486;SDS011;10510;47.942;9.442;2022-09-12T09:07:27;0.82;;;0.40;;
11486;SDS011;10510;47.942;9.442;2022-09-12T09:10:00;1.60;;;0.70;;
11486;SDS011;10510;47.942;9.442;2022-09-12T09:16:54;0.73;;;0.40;;
11486;SDS011;10510;47.942;9.442;2022-09-12T09:18:56;0.50;;;0.47;;
11486;SDS011;10510;47.942;9.442;2022-09-12T09:21:01;3.47;;;1.10;;
11486;SDS011;10510;47.942;9.442;2022-09-12T09:23:06;1.42;;;0.60;;
11486;SDS011;10510;47.942;9.442;2022-09-12T09:25:16;1.30;;;0.50;;
11486;SDS011;10510;47.942;9.442;2022-09-12T09:29:35;2.10;;;0.68;;
11486;SDS011;10510;47.942;9.442;2022-09-12T09:31:40;2.60;;;0.85;;
11486;SDS011;10510;47.942;9.442;2022-09-12T09:33:41;0.88;;;0.50;;
11486;SDS011;10510;47.942;9.442;2022-09-12T09:35:43;2.20;;;0.60;;
11486;SDS011;10510;47.942;9.442;2022-09-12T09:38:11;4.68;;;1.17;;
11486;SDS011;10510;47.942;9.442;2022-09-12T09:40:24;4.03;;;0.70;;
11486;SDS011;10510;47.942;9.442;2022-09-12T09:42:40;0.60;;;0.50;;
11486;SDS011;10510;47.942;9.442;2022-09-12T09:45:10;0.68;;;0.50;;
11486;SDS011;10510;47.942;9.442;2022-09-12T09:47:16;0.55;;;0.50;;
11486;SDS011;10510;47.942;9.442;2022-09-12T09:49:17;1.65;;;0.65;;
11486;SDS011;10510;47.942;9.442;2022-09-12T09:51:25;4.13;;;0.55;;
11486;SDS011;10510;47.942;9.442;2022-09-12T09:56:04;0.85;;;0.50;;
11486;SDS011;10510;47.942;9.442;2022-09-12T09:58:10;2.83;;;0.50;;
11486;SDS011;10510;47.942;9.442;2022-09-12T10:00:21;4.55;;;0.60;;
11486;SDS011;10510;47.942;9.442;2022-09-12T10:02:23;2.45;;;0.70;;
11486;SDS011;10510;47.942;9.442;2022-09-12T10:04:24;3.67;;;0.40;;
11486;SDS011;10510;47.942;9.442;2022-09-12T10:06:30;1.05;;;0.57;;
11486;SDS011;10510;47.942;9.442;2022-09-12T10:08:33;0.57;;;0.40;;
11486;SDS011;10510;47.942;9.442;2022-09-12T10:10:35;0.35;;;0.35;;
11486;SDS011;10510;47.942;9.442;2022-09-12T10:12:36;2.47;;;0.32;;
11486;SDS011;10510;47.942;9.442;2022-09-12T10:14:37;1.40;;;0.30;;
11486;SDS011;10510;47.942;9.442;2022-09-12T10:16:49;1.95;;;0.28;;
11486;SDS011;10510;47.942;9.442;2022-09-12T10:18:54;1.30;;;0.30;;
11486;SDS011;10510;47.942;9.442;2022-09-12T10:20:57;0.32;;;0.30;;
11486;SDS011;10510;47.942;9.442;2022-09-12T10:23:19;3.75;;;0.40;;
11486;SDS011;10510;47.942;9.442;2022-09-12T10:25:23;4.20;;;0.50;;
11486;SDS011;10510;47.942;9.442;2022-09-12T10:27:27;2.10;;;0.75;;
11486;SDS011;10510;47.942;9.442;2022-09-12T10:29:32;4.20;;;0.47;;
11486;SDS011;10510;47.942;9.442;2022-09-12T10:31:42;1.13;;;0.50;;
11486;SDS011;10510;47.942;9.442;2022-09-12T10:33:47;0.82;;;0.30;;
11486;SDS011;10510;47.942;9.442;2022-09-12T10:35:52;0.75;;;0.30;;
11486;SDS011;10510;47.942;9.442;2022-09-12T10:39:57;2.17;;;0.60;;
11486;SDS011;10510;47.942;9.442;2022-09-12T10:41:59;1.02;;;0.40;;
11486;SDS011;10510;47.942;9.442;2022-09-12T10:44:07;7.03;;;2.55;;
11486;SDS011;10510;47.942;9.442;2022-09-12T10:48:27;0.80;;;0.50;;
11486;SDS011;10510;47.942;9.442;2022-09-12T10:50:40;1.20;;;0.35;;
11486;SDS011;10510;47.942;9.442;2022-09-12T10:52:41;0.82;;;0.52;;
11486;SDS011;10510;47.942;9.442;2022-09-12T10:54:42;1.05;;;0.30;;
11486;SDS011;10510;47.942;9.442;2022-09-12T10:59:19;2.75;;;0.40;;
11486;SDS011;10510;47.942;9.442;2022-09-12T11:03:50;1.38;;;0.40;;
11486;SDS011;10510;47.942;9.442;2022-09-12T11:06:01;0.98;;;0.50;;
11486;SDS011;10510;47.942;9.442;2022-09-12T11:08:06;0.30;;;0.30;;
11486;SDS011;10510;47.942;9.442;2022-09-12T11:10:33;1.35;;;0.80;;
11486;SDS011;10510;47.942;9.442;2022-09-12T11:13:02;7.18;;;1.27;;
11486;SDS011;10510;47.942;9.442;2022-09-12T11:17:50;0.85;;;0.30;;
11486;SDS011;10510;47.942;9.442;2022-09-12T11:29:51;1.58;;;0.50;;
11486;SDS011;10510;47.942;9.442;2022-09-12T11:34:08;0.75;;;0.40;;
11486;SDS011;10510;47.942;9.442;2022-09-12T11:36:20;0.50;;;0.20;;
11486;SDS011;10510;47.942;9.442;2022-09-12T11:40:44;0.45;;;0.30;;
11486;SDS011;10510;47.942;9.442;2022-09-12T11:42:50;2.22;;;0.38;;
11486;SDS011;10510;47.942;9.442;2022-09-12T11:45:00;0.80;;;0.20;;
11486;SDS011;10510;47.942;9.442;2022-09-12T11:47:09;1.15;;;0.30;;
11486;SDS011;10510;47.942;9.442;2022-09-12T11:51:15;1.05;;;0.30;;
11486;SDS011;10510;47.942;9.442;2022-09-12T11:53:21;1.65;;;0.30;;
11486;SDS011;10510;47.942;9.442;2022-09-12T11:55:26;0.73;;;0.30;;
11486;SDS011;10510;47.942;9.442;2022-09-12T12:00:02;0.93;;;0.40;;
11486;SDS011;10510;47.942;9.442;2022-09-12T12:02:10;0.60;;;0.35;;
11486;SDS011;10510;47.942;9.442;2022-09-12T12:04:14;0.25;;;0.25;;
11486;SDS011;10510;47.942;9.442;2022-09-12T12:06:28;2.50;;;0.47;;
11486;SDS011;10510;47.942;9.442;2022-09-12T12:08:31;3.10;;;0.50;;
11486;SDS011;10510;47.942;9.442;2022-09-12T12:10:38;0.73;;;0.45;;
11486;SDS011;10510;47.942;9.442;2022-09-12T12:12:40;0.65;;;0.40;;
11486;SDS011;10510;47.942;9.442;2022-09-12T12:14:42;1.80;;;0.40;;
11486;SDS011;10510;47.942;9.442;2022-09-12T12:16:46;0.30;;;0.30;;
11486;SDS011;10510;47.942;9.442;2022-09-12T12:18:52;2.08;;;0.30;;
11486;SDS011;10510;47.942;9.442;2022-09-12T12:21:19;0.50;;;0.30;;
11486;SDS011;10510;47.942;9.442;2022-09-12T12:23:32;0.40;;;0.30;;
11486;SDS011;10510;47.942;9.442;2022-09-12T12:25:38;2.75;;;0.50;;
11486;SDS011;10510;47.942;9.442;2022-09-12T12:29:53;0.38;;;0.20;;
11486;SDS011;10510;47.942;9.442;2022-09-12T12:34:03;0.73;;;0.30;;
11486;SDS011;10510;47.942;9.442;2022-09-12T12:36:29;0.80;;;0.30;;
11486;SDS011;10510;47.942;9.442;2022-09-12T12:38:37;0.73;;;0.30;;
11486;SDS011;10510;47.942;9.442;2022-09-12T12:40:39;1.10;;;0.30;;
11486;SDS011;10510;47.942;9.442;2022-09-12T12:46:43;2.17;;;0.57;;
11486;SDS011;10510;47.942;9.442;2022-09-12T12:49:17;0.52;;;0.40;;
11486;SDS011;10510;47.942;9.442;2022-09-12T12:53:44;0.40;;;0.40;;
11486;SDS011;10510;47.942;9.442;2022-09-12T12:55:46;0.20;;;0.20;;
11486;SDS011;10510;47.942;9.442;2022-09-12T12:57:51;2.35;;;0.20;;
11486;SDS011;10510;47.942;9.442;2022-09-12T13:00:04;1.88;;;0.40;;
11486;SDS011;10510;47.942;9.442;2022-09-12T13:04:40;1.95;;;0.60;;
11486;SDS011;10510;47.942;9.442;2022-09-12T13:06:44;1.15;;;0.40;;
11486;SDS011;10510;47.942;9.442;2022-09-12T13:08:57;1.38;;;0.50;;
11486;SDS011;10510;47.942;9.442;2022-09-12T13:11:02;0.98;;;0.30;;
11486;SDS011;10510;47.942;9.442;2022-09-12T13:13:16;1.10;;;0.40;;
11486;SDS011;10510;47.942;9.442;2022-09-12T13:17:37;1.27;;;0.40;;
11486;SDS011;10510;47.942;9.442;2022-09-12T13:19:40;1.45;;;0.80;;
11486;SDS011;10510;47.942;9.442;2022-09-12T13:21:54;0.40;;;0.40;;
11486;SDS011;10510;47.942;9.442;2022-09-12T13:24:03;0.80;;;0.20;;
11486;SDS011;10510;47.942;9.442;2022-09-12T13:26:21;0.77;;;0.30;;
11486;SDS011;10510;47.942;9.442;2022-09-12T13:28:24;0.32;;;0.20;;
11486;SDS011;10510;47.942;9.442;2022-09-12T13:30:25;0.45;;;0.40;;
11486;SDS011;10510;47.942;9.442;2022-09-12T13:32:28;1.00;;;0.40;;
11486;SDS011;10510;47.942;9.442;2022-09-12T13:34:30;0.32;;;0.28;;
11486;SDS011;10510;47.942;9.442;2022-09-12T13:41:29;0.65;;;0.20;;
11486;SDS011;10510;47.942;9.442;2022-09-12T13:43:40;0.93;;;0.47;;
11486;SDS011;10510;47.942;9.442;2022-09-12T13:45:44;0.47;;;0.40;;
11486;SDS011;10510;47.942;9.442;2022-09-12T13:47:47;0.30;;;0.22;;
11486;SDS011;10510;47.942;9.442;2022-09-12T13:49:51;0.50;;;0.25;;
11486;SDS011;10510;47.942;9.442;2022-09-12T13:51:57;1.08;;;0.50;;
11486;SDS011;10510;47.942;9.442;2022-09-12T13:54:01;0.20;;;0.20;;
11486;SDS011;10510;47.942;9.442;2022-09-12T13:56:03;3.13;;;0.38;;
11486;SDS011;10510;47.942;9.442;2022-09-12T13:58:05;2.67;;;0.30;;
11486;SDS011;10510;47.942;9.442;2022-09-12T14:00:19;2.42;;;0.20;;
11486;SDS011;10510;47.942;9.442;2022-09-12T14:02:21;1.52;;;0.50;;
11486;SDS011;10510;47.942;9.442;2022-09-12T14:04:25;1.67;;;0.20;;
11486;SDS011;10510;47.942;9.442;2022-09-12T14:06:46;0.75;;;0.50;;
11486;SDS011;10510;47.942;9.442;2022-09-12T14:08:50;2.22;;;0.20;;
11486;SDS011;10510;47.942;9.442;2022-09-12T14:10:51;0.40;;;0.30;;
11486;SDS011;10510;47.942;9.442;2022-09-12T14:12:52;0.65;;;0.40;;
11486;SDS011;10510;47.942;9.442;2022-09-12T14:14:54;2.28;;;0.32;;
11486;SDS011;10510;47.942;9.442;2022-09-12T14:16:54;0.57;;;0.22;;